KLVN

Airlake Airport

Minneapolis, Minnesota, USA
METAR KLVN 231355Z AUTO 27011G15KT 10SM OVC010 M04/M04 A3009 RMK AO2 P0001
Observed Flight Rules
Feb-23 @ 13:55 UTC (41 minutes ago) Marginal Visual Flight Rules
Wind Visibility Clouds
270° at 11 knots
 Gusting to 15 knots
10 miles
  • Overcast at 1,000' AGL
Temperatures Readings Precipitation
Current -4°C / 25°F
Dewpoint -4°C / 25°F
Humidity 100%
Altimeter 30.09" Hg
Pressure 1019 hPa
Elevation 293
Current Rain 0.01
METAR KLVN 231355Z AUTO 27011G15KT 10SM OVC010 M04/M04 A3009 RMK AO2 P0001
Observed Flight Rules
Feb-23 @ 13:55 UTC
(41 minutes ago)
MVFR
Wind Visibility
270° at 11 knots
 Gusting to 15 knots
10 miles
Clouds
  • Overcast at 1,000' AGL
Temperature Dewpoint
-4°C / 25°F -4°C / 25°F
Humidity Altimeter Pressure
100% 30.09" Hg 1019 hPa
Current Rain
0.01